Time;durP1;ratioP1;P1;durP2;ratioP2;P2;SDS_P1;SDS_P2;PMS_P1;PMS_P2;Temp;Humidity;BMP_temperature;BMP_pressure;BME280_temperature;BME280_humidity;BME280_pressure;Samples;Min_cycle;Max_cycle;Signal;HPM_P1;HPM_P2
2023/08/25 00:01:17;;;;;;;9.73;3.15;;;;;;;;;;5097269;28;20474;-85
2023/08/25 00:03:43;;;;;;;10.93;2.80;;;;;;;;;;5100960;28;20046;-84
2023/08/25 00:06:09;;;;;;;13.82;3.00;;;;;;;;;;5103947;28;20557;-84
2023/08/25 00:08:35;;;;;;;9.57;2.70;;;;;;;;;;5102920;28;20055;-84
2023/08/25 00:11:00;;;;;;;12.55;2.63;;;;;;;;;;5102845;28;20031;-84
2023/08/25 00:13:26;;;;;;;10.23;2.95;;;;;;;;;;5091984;28;20031;-85
2023/08/25 00:15:51;;;;;;;10.52;3.08;;;;;;;;;;5096194;28;20036;-85
2023/08/25 00:18:17;;;;;;;8.13;2.60;;;;;;;;;;5098104;28;20024;-84
2023/08/25 00:20:42;;;;;;;10.00;2.50;;;;;;;;;;5100350;28;20030;-84
2023/08/25 00:23:08;;;;;;;11.07;2.55;;;;;;;;;;5093094;28;20067;-84
2023/08/25 00:25:34;;;;;;;12.10;2.45;;;;;;;;;;5089727;28;20087;-84
2023/08/25 00:28:00;;;;;;;10.05;2.50;;;;;;;;;;5091174;28;20056;-84
2023/08/25 00:30:26;;;;;;;11.90;2.42;;;;;;;;;;5093668;28;20067;-84
2023/08/25 00:32:53;;;;;;;10.80;2.97;;;;;;;;;;5092827;28;20124;-85
2023/08/25 00:35:20;;;;;;;8.85;2.58;;;;;;;;;;5086482;28;20492;-85
2023/08/25 00:37:46;;;;;;;8.07;2.20;;;;;;;;;;5088037;28;20039;-84
2023/08/25 00:40:11;;;;;;;9.43;2.50;;;;;;;;;;5095743;28;20044;-86
2023/08/25 00:42:36;;;;;;;13.05;2.50;;;;;;;;;;5111796;27;20031;-85
2023/08/25 00:45:03;;;;;;;7.75;2.28;;;;;;;;;;5094895;28;20028;-85
2023/08/25 00:47:29;;;;;;;12.93;2.40;;;;;;;;;;5085078;28;20177;-85
2023/08/25 00:49:55;;;;;;;8.88;2.20;;;;;;;;;;5096384;28;20055;-85
2023/08/25 00:52:21;;;;;;;7.65;2.35;;;;;;;;;;5092577;28;20028;-85
2023/08/25 00:54:51;;;;;;;13.07;2.38;;;;;;;;;;5105376;28;20055;-84
2023/08/25 00:57:17;;;;;;;9.23;2.47;;;;;;;;;;5104145;28;20036;-85
2023/08/25 00:59:44;;;;;;;8.02;2.13;;;;;;;;;;5101200;28;20095;-85
2023/08/25 01:02:09;;;;;;;9.15;2.10;;;;;;;;;;5103914;28;20051;-85
2023/08/25 01:04:35;;;;;;;9.30;2.60;;;;;;;;;;5107818;28;20027;-85
2023/08/25 01:07:00;;;;;;;11.40;2.40;;;;;;;;;;5108970;28;20032;-85
2023/08/25 01:09:27;;;;;;;7.40;1.90;;;;;;;;;;5102491;28;20028;-85
2023/08/25 01:12:08;;;;;;;7.70;2.20;;;;;;;;;;5100879;28;20024;-85
2023/08/25 01:14:52;;;;;;;9.27;2.25;;;;;;;;;;5105247;28;20486;-85
2023/08/25 01:17:28;;;;;;;9.55;2.10;;;;;;;;;;5068618;28;20482;-85
2023/08/25 01:19:58;;;;;;;8.70;2.30;;;;;;;;;;5101852;28;20237;-84
2023/08/25 01:22:34;;;;;;;14.18;2.17;;;;;;;;;;5095599;28;20036;-84
2023/08/25 01:25:19;;;;;;;8.90;2.13;;;;;;;;;;5084398;28;20045;-85
2023/08/25 01:27:46;;;;;;;7.65;2.00;;;;;;;;;;5085114;28;20036;-84
2023/08/25 01:30:13;;;;;;;8.75;2.40;;;;;;;;;;5096415;28;20033;-84
2023/08/25 01:32:39;;;;;;;9.65;2.10;;;;;;;;;;5112322;27;20092;-84
2023/08/25 01:35:05;;;;;;;9.30;2.33;;;;;;;;;;5089659;28;20020;-84
2023/08/25 01:37:34;;;;;;;6.30;2.17;;;;;;;;;;5104002;28;20073;-84
2023/08/25 01:40:07;;;;;;;9.65;2.03;;;;;;;;;;5096340;28;20058;-84
2023/08/25 01:42:33;;;;;;;9.77;2.33;;;;;;;;;;5066446;28;20033;-83
2023/08/25 01:45:02;;;;;;;9.98;2.78;;;;;;;;;;5094805;28;20032;-84
2023/08/25 01:47:28;;;;;;;8.45;2.00;;;;;;;;;;5092033;28;20016;-84
2023/08/25 01:49:55;;;;;;;9.48;2.20;;;;;;;;;;5096742;28;20040;-83
2023/08/25 01:52:21;;;;;;;8.88;2.20;;;;;;;;;;5093701;28;20057;-84
2023/08/25 01:54:49;;;;;;;9.93;2.30;;;;;;;;;;5088710;28;20037;-83
2023/08/25 01:57:15;;;;;;;10.45;2.03;;;;;;;;;;5087768;28;20051;-83
2023/08/25 01:59:40;;;;;;;8.23;2.03;;;;;;;;;;5110085;28;20035;-82
2023/08/25 02:02:06;;;;;;;9.13;2.10;;;;;;;;;;5115809;28;20040;-82
2023/08/25 02:04:31;;;;;;;7.38;2.05;;;;;;;;;;5105983;28;20441;-83
2023/08/25 02:06:57;;;;;;;15.23;2.65;;;;;;;;;;5120996;27;20032;-83
2023/08/25 02:09:23;;;;;;;8.55;2.03;;;;;;;;;;5093345;28;20073;-84
2023/08/25 02:11:49;;;;;;;5.50;2.00;;;;;;;;;;5096173;28;20139;-83
2023/08/25 02:14:17;;;;;;;9.35;1.80;;;;;;;;;;5098979;28;20035;-82
2023/08/25 02:16:43;;;;;;;8.98;2.08;;;;;;;;;;5101065;28;20059;-82
2023/08/25 02:19:09;;;;;;;8.98;2.13;;;;;;;;;;5093103;28;20074;-83
2023/08/25 02:21:34;;;;;;;10.60;1.90;;;;;;;;;;5103018;28;20038;-82
2023/08/25 02:24:00;;;;;;;13.98;2.60;;;;;;;;;;5080019;28;20020;-82
2023/08/25 02:26:25;;;;;;;7.85;2.00;;;;;;;;;;5085642;28;20016;-84
2023/08/25 02:28:53;;;;;;;9.02;1.77;;;;;;;;;;5095707;28;20058;-83
2023/08/25 02:31:18;;;;;;;8.00;1.90;;;;;;;;;;5092502;28;20019;-84
2023/08/25 02:33:45;;;;;;;11.27;2.42;;;;;;;;;;5086160;28;20075;-82
2023/08/25 02:36:10;;;;;;;9.05;2.20;;;;;;;;;;5097286;28;20032;-82
2023/08/25 02:38:36;;;;;;;5.75;1.85;;;;;;;;;;5111707;27;20124;-82
2023/08/25 02:41:01;;;;;;;8.13;2.13;;;;;;;;;;5089955;28;20032;-82
2023/08/25 02:43:27;;;;;;;8.25;2.30;;;;;;;;;;5092316;28;20039;-83
2023/08/25 02:45:52;;;;;;;9.15;1.98;;;;;;;;;;5082840;28;20092;-83
2023/08/25 02:48:18;;;;;;;5.57;2.25;;;;;;;;;;5092503;28;20032;-83
2023/08/25 02:50:45;;;;;;;9.70;1.90;;;;;;;;;;5093022;28;20115;-82
2023/08/25 02:53:11;;;;;;;6.03;1.70;;;;;;;;;;5090473;28;20056;-82
2023/08/25 02:55:37;;;;;;;7.13;2.25;;;;;;;;;;5075716;28;20028;-82
2023/08/25 02:58:03;;;;;;;10.85;2.42;;;;;;;;;;5090682;28;20115;-82
2023/08/25 03:00:29;;;;;;;10.70;2.33;;;;;;;;;;5092242;28;20063;-83
2023/08/25 03:02:54;;;;;;;7.05;2.10;;;;;;;;;;5110254;28;20034;-84
2023/08/25 03:05:21;;;;;;;8.85;2.05;;;;;;;;;;5111163;28;20024;-83
2023/08/25 03:07:52;;;;;;;8.23;2.15;;;;;;;;;;5096996;28;20123;-84
2023/08/25 03:10:18;;;;;;;8.10;1.75;;;;;;;;;;5097619;28;20035;-82
2023/08/25 03:12:43;;;;;;;8.98;2.20;;;;;;;;;;5106512;28;20127;-82
2023/08/25 03:15:09;;;;;;;8.02;1.92;;;;;;;;;;5110738;28;20023;-82
2023/08/25 03:17:35;;;;;;;10.52;1.80;;;;;;;;;;5103173;28;20028;-82
2023/08/25 03:20:02;;;;;;;7.25;2.22;;;;;;;;;;5098464;28;20032;-83
2023/08/25 03:22:29;;;;;;;7.28;2.05;;;;;;;;;;5113881;27;20035;-83
2023/08/25 03:24:55;;;;;;;8.93;2.13;;;;;;;;;;5079138;28;20028;-84
2023/08/25 03:27:20;;;;;;;13.85;2.00;;;;;;;;;;5087833;28;20062;-83
2023/08/25 03:29:46;;;;;;;9.65;2.28;;;;;;;;;;5097437;28;20028;-82
2023/08/25 03:32:12;;;;;;;10.60;2.10;;;;;;;;;;5098638;28;20143;-83
2023/08/25 03:34:37;;;;;;;9.43;2.38;;;;;;;;;;5080136;28;20786;-82
2023/08/25 03:37:03;;;;;;;8.38;2.03;;;;;;;;;;5100231;28;20118;-82
2023/08/25 03:39:29;;;;;;;7.15;2.10;;;;;;;;;;5094975;28;20032;-83
2023/08/25 03:41:55;;;;;;;10.20;2.10;;;;;;;;;;5094908;28;20481;-83
2023/08/25 03:44:21;;;;;;;14.05;2.63;;;;;;;;;;5081691;28;20113;-84
2023/08/25 03:46:46;;;;;;;7.03;1.98;;;;;;;;;;5095605;28;20489;-82
2023/08/25 03:49:12;;;;;;;7.28;1.80;;;;;;;;;;5092920;28;20027;-82
2023/08/25 03:51:38;;;;;;;7.90;1.90;;;;;;;;;;5094448;28;20032;-82
2023/08/25 03:54:06;;;;;;;13.25;2.20;;;;;;;;;;5094046;28;20032;-82
2023/08/25 03:56:32;;;;;;;7.28;1.95;;;;;;;;;;5097881;28;20043;-83
2023/08/25 03:58:58;;;;;;;10.48;1.77;;;;;;;;;;5093194;28;20028;-83
2023/08/25 04:01:23;;;;;;;9.57;2.10;;;;;;;;;;5086708;28;20508;-83
2023/08/25 04:03:49;;;;;;;8.63;2.10;;;;;;;;;;5089686;28;20174;-83
2023/08/25 04:06:14;;;;;;;7.25;2.25;;;;;;;;;;5097453;28;20508;-82
2023/08/25 04:08:40;;;;;;;7.63;1.98;;;;;;;;;;5100901;28;20098;-83
2023/08/25 04:11:06;;;;;;;9.18;2.03;;;;;;;;;;5113059;28;20547;-82
2023/08/25 04:13:33;;;;;;;9.27;1.98;;;;;;;;;;5081135;28;20059;-82
2023/08/25 04:16:01;;;;;;;6.13;1.77;;;;;;;;;;5106216;28;20032;-84
2023/08/25 04:18:30;;;;;;;6.95;1.80;;;;;;;;;;5096789;28;20387;-84
2023/08/25 04:20:55;;;;;;;7.63;1.85;;;;;;;;;;5085997;28;20678;-84
2023/08/25 04:23:24;;;;;;;5.47;1.70;;;;;;;;;;5105086;28;20032;-83
2023/08/25 04:25:50;;;;;;;9.25;1.90;;;;;;;;;;5100861;28;20050;-83
2023/08/25 04:28:16;;;;;;;6.22;1.77;;;;;;;;;;5078585;28;20143;-83
2023/08/25 04:30:42;;;;;;;7.13;1.98;;;;;;;;;;5090947;28;20041;-83
2023/08/25 04:33:17;;;;;;;7.00;2.05;;;;;;;;;;5092364;28;20032;-83
2023/08/25 04:35:43;;;;;;;8.73;1.90;;;;;;;;;;5081969;28;20032;-83
2023/08/25 04:38:08;;;;;;;5.55;2.00;;;;;;;;;;5092692;28;20165;-84
2023/08/25 04:40:34;;;;;;;8.18;1.90;;;;;;;;;;5091939;28;20042;-84
2023/08/25 04:43:00;;;;;;;8.50;1.95;;;;;;;;;;5080318;28;20778;-84
2023/08/25 04:45:27;;;;;;;7.35;2.08;;;;;;;;;;5096012;28;20108;-83
2023/08/25 04:47:53;;;;;;;9.63;2.03;;;;;;;;;;5092194;28;20032;-82
2023/08/25 04:50:20;;;;;;;6.07;1.90;;;;;;;;;;5077951;28;20027;-83
2023/08/25 04:52:46;;;;;;;6.85;1.92;;;;;;;;;;5085847;28;20032;-83
2023/08/25 04:55:12;;;;;;;6.05;1.80;;;;;;;;;;5091049;28;20036;-83
2023/08/25 04:57:41;;;;;;;6.57;2.10;;;;;;;;;;5093011;28;20028;-83
2023/08/25 05:00:08;;;;;;;8.23;2.05;;;;;;;;;;5091882;28;20445;-84
2023/08/25 05:02:34;;;;;;;6.65;1.80;;;;;;;;;;5099717;27;20044;-84
2023/08/25 05:05:06;;;;;;;8.15;1.83;;;;;;;;;;5082816;28;20027;-83
2023/08/25 05:07:33;;;;;;;8.98;2.10;;;;;;;;;;5076107;28;20401;-83
2023/08/25 05:09:59;;;;;;;7.13;1.90;;;;;;;;;;5104383;28;20031;-83
2023/08/25 05:12:26;;;;;;;6.88;2.20;;;;;;;;;;5108257;28;20039;-82
2023/08/25 05:14:52;;;;;;;6.63;1.90;;;;;;;;;;5103947;28;20362;-83
2023/08/25 05:17:18;;;;;;;6.05;1.65;;;;;;;;;;5079146;28;20035;-84
2023/08/25 05:19:46;;;;;;;9.15;2.13;;;;;;;;;;5097139;28;20186;-84
2023/08/25 05:22:13;;;;;;;6.13;1.80;;;;;;;;;;5099385;28;20092;-85
2023/08/25 05:24:39;;;;;;;7.20;2.10;;;;;;;;;;5078324;28;20032;-84
2023/08/25 05:27:05;;;;;;;8.43;2.15;;;;;;;;;;5091649;28;20043;-83
2023/08/25 05:29:31;;;;;;;6.45;1.75;;;;;;;;;;5091554;28;20512;-83
2023/08/25 05:32:00;;;;;;;7.30;1.80;;;;;;;;;;5080695;28;20048;-83
2023/08/25 05:34:37;;;;;;;7.88;1.80;;;;;;;;;;5096810;28;20030;-83
2023/08/25 05:37:07;;;;;;;6.20;1.55;;;;;;;;;;5084808;28;20034;-83
2023/08/25 05:39:33;;;;;;;5.00;1.67;;;;;;;;;;5092325;28;20103;-83
2023/08/25 05:41:58;;;;;;;5.90;1.80;;;;;;;;;;5086947;28;20035;-84
2023/08/25 05:44:26;;;;;;;4.80;1.88;;;;;;;;;;5094253;28;20436;-84
2023/08/25 05:46:52;;;;;;;6.10;1.70;;;;;;;;;;5093518;28;20035;-85
2023/08/25 05:49:17;;;;;;;7.85;1.65;;;;;;;;;;5091681;28;20036;-83
2023/08/25 05:51:45;;;;;;;5.35;1.85;;;;;;;;;;5092758;28;20038;-83
2023/08/25 05:54:10;;;;;;;9.27;1.83;;;;;;;;;;5078695;28;20077;-83
2023/08/25 05:56:36;;;;;;;7.93;2.20;;;;;;;;;;5092871;28;20032;-84
2023/08/25 05:59:02;;;;;;;7.05;1.90;;;;;;;;;;5091848;28;20115;-84
2023/08/25 06:01:28;;;;;;;6.28;1.80;;;;;;;;;;5087410;28;20034;-83
2023/08/25 06:03:54;;;;;;;4.78;1.88;;;;;;;;;;5088473;28;20036;-84
2023/08/25 06:06:20;;;;;;;5.90;1.98;;;;;;;;;;5086619;28;20112;-83
2023/08/25 06:08:45;;;;;;;7.70;2.05;;;;;;;;;;5089322;28;20032;-83
2023/08/25 06:11:11;;;;;;;7.20;1.92;;;;;;;;;;5085811;28;20020;-82
2023/08/25 06:13:36;;;;;;;5.40;1.60;;;;;;;;;;5106247;28;20028;-82
2023/08/25 06:16:03;;;;;;;3.42;1.52;;;;;;;;;;5095768;28;20032;-83
2023/08/25 06:18:28;;;;;;;6.82;1.55;;;;;;;;;;5097662;28;20039;-84
2023/08/25 06:20:54;;;;;;;6.82;1.95;;;;;;;;;;5101314;28;20587;-85
2023/08/25 06:23:20;;;;;;;6.65;2.00;;;;;;;;;;5078568;28;20039;-85
2023/08/25 06:25:45;;;;;;;9.48;1.50;;;;;;;;;;5098420;28;20055;-84
2023/08/25 06:28:12;;;;;;;5.00;1.75;;;;;;;;;;5092132;28;20035;-84
2023/08/25 06:30:40;;;;;;;4.88;1.60;;;;;;;;;;5095686;28;20140;-83
2023/08/25 06:33:06;;;;;;;7.20;1.80;;;;;;;;;;5099679;28;20035;-83
2023/08/25 06:35:31;;;;;;;8.10;1.70;;;;;;;;;;5098425;28;20040;-85
2023/08/25 06:37:57;;;;;;;7.25;1.83;;;;;;;;;;5091685;28;20116;-86
2023/08/25 06:40:22;;;;;;;8.10;1.80;;;;;;;;;;5089250;28;20385;-84
2023/08/25 06:42:48;;;;;;;7.25;1.90;;;;;;;;;;5091356;28;20071;-86
2023/08/25 06:45:14;;;;;;;8.63;2.10;;;;;;;;;;5093475;28;20118;-84
2023/08/25 06:47:40;;;;;;;5.97;2.00;;;;;;;;;;5094990;28;20066;-84
2023/08/25 06:50:06;;;;;;;4.30;1.63;;;;;;;;;;5089532;28;20040;-85
2023/08/25 06:52:32;;;;;;;7.07;2.00;;;;;;;;;;5087460;28;20025;-84
2023/08/25 06:54:58;;;;;;;10.23;2.05;;;;;;;;;;5094634;28;20043;-84
2023/08/25 06:57:24;;;;;;;6.45;2.00;;;;;;;;;;5093077;28;20463;-83
2023/08/25 06:59:50;;;;;;;5.53;1.80;;;;;;;;;;5088647;28;20022;-83
2023/08/25 07:02:16;;;;;;;6.00;1.98;;;;;;;;;;5081478;28;20028;-82
2023/08/25 07:04:41;;;;;;;6.57;1.90;;;;;;;;;;5093640;28;20027;-83
2023/08/25 07:07:07;;;;;;;4.20;1.75;;;;;;;;;;5090068;28;20474;-83
2023/08/25 07:09:32;;;;;;;5.75;1.70;;;;;;;;;;5085663;28;20031;-84
2023/08/25 07:11:58;;;;;;;5.65;1.90;;;;;;;;;;5083013;28;20092;-85
2023/08/25 07:14:24;;;;;;;5.97;1.80;;;;;;;;;;5092658;28;20028;-86
2023/08/25 07:16:49;;;;;;;6.32;1.77;;;;;;;;;;5099918;28;20035;-87
2023/08/25 07:19:16;;;;;;;5.95;1.45;;;;;;;;;;5103466;28;20113;-89
2023/08/25 07:21:42;;;;;;;5.82;1.95;;;;;;;;;;5106295;28;20123;-82
2023/08/25 07:24:07;;;;;;;3.42;1.70;;;;;;;;;;5095923;28;20486;-82
2023/08/25 07:26:34;;;;;;;4.68;1.95;;;;;;;;;;5093049;28;20455;-85
2023/08/25 07:28:59;;;;;;;4.70;1.83;;;;;;;;;;5098333;28;20028;-85
2023/08/25 07:31:25;;;;;;;6.78;1.95;;;;;;;;;;5102999;28;20047;-85
2023/08/25 07:33:50;;;;;;;4.63;1.65;;;;;;;;;;5099461;28;20067;-86
2023/08/25 07:36:17;;;;;;;8.50;1.80;;;;;;;;;;5092338;28;20044;-85
2023/08/25 07:38:43;;;;;;;5.63;1.60;;;;;;;;;;5090123;28;20036;-84
2023/08/25 07:41:11;;;;;;;4.25;1.90;;;;;;;;;;5092470;28;20042;-85
2023/08/25 07:43:37;;;;;;;8.90;2.10;;;;;;;;;;5078631;28;20028;-84
2023/08/25 07:46:03;;;;;;;6.22;1.55;;;;;;;;;;5095682;28;20029;-85
2023/08/25 07:48:28;;;;;;;4.97;1.65;;;;;;;;;;5092826;28;20036;-86
2023/08/25 07:50:54;;;;;;;4.72;1.73;;;;;;;;;;5091105;28;20030;-88
2023/08/25 07:53:19;;;;;;;7.03;1.65;;;;;;;;;;5099670;28;20548;-84
2023/08/25 07:55:45;;;;;;;4.00;1.60;;;;;;;;;;5100657;28;20588;-83
2023/08/25 07:58:11;;;;;;;3.80;1.63;;;;;;;;;;5096622;28;20455;-85
2023/08/25 08:00:40;;;;;;;6.88;1.70;;;;;;;;;;5091173;28;20074;-85
2023/08/25 08:03:11;;;;;;;5.30;1.88;;;;;;;;;;5096903;28;20391;-84
2023/08/25 08:05:38;;;;;;;7.88;1.90;;;;;;;;;;5100751;28;20477;-85
2023/08/25 08:08:04;;;;;;;5.65;1.90;;;;;;;;;;5095760;28;20056;-85
2023/08/25 08:10:29;;;;;;;6.35;1.50;;;;;;;;;;5096580;28;20024;-85
2023/08/25 08:12:56;;;;;;;4.35;1.90;;;;;;;;;;5091724;28;20131;-85
2023/08/25 08:15:23;;;;;;;4.75;1.73;;;;;;;;;;5097422;28;20035;-84
2023/08/25 08:17:49;;;;;;;3.03;1.60;;;;;;;;;;5095758;28;20112;-84
2023/08/25 08:20:14;;;;;;;5.93;1.75;;;;;;;;;;5114394;28;20039;-79
2023/08/25 08:22:43;;;;;;;6.05;2.58;;;;;;;;;;5108357;28;20035;-84
2023/08/25 08:25:10;;;;;;;4.53;1.70;;;;;;;;;;5100073;28;20032;-83
2023/08/25 08:27:39;;;;;;;4.32;1.70;;;;;;;;;;5103045;28;20059;-84
2023/08/25 08:30:06;;;;;;;6.13;1.90;;;;;;;;;;5109132;28;20032;-84
2023/08/25 08:32:33;;;;;;;4.15;1.90;;;;;;;;;;5108626;28;20027;-86
2023/08/25 08:34:59;;;;;;;4.25;1.50;;;;;;;;;;5096795;28;20106;-89
2023/08/25 08:37:24;;;;;;;4.88;1.65;;;;;;;;;;5094474;28;20071;-86
2023/08/25 08:39:51;;;;;;;6.10;1.70;;;;;;;;;;5097724;28;20031;-86
2023/08/25 08:42:17;;;;;;;4.00;1.70;;;;;;;;;;5105778;28;20028;-87
2023/08/25 08:44:49;;;;;;;5.63;1.83;;;;;;;;;;5103174;28;20036;-88
2023/08/25 08:47:19;;;;;;;6.00;1.80;;;;;;;;;;5094692;28;20052;-87
2023/08/25 08:49:45;;;;;;;5.15;1.80;;;;;;;;;;5098215;28;20041;-87
2023/08/25 08:52:11;;;;;;;3.85;1.73;;;;;;;;;;5103818;28;20481;-87
2023/08/25 08:54:41;;;;;;;5.72;1.70;;;;;;;;;;5097759;28;20031;-88
2023/08/25 08:57:08;;;;;;;4.63;1.50;;;;;;;;;;5093028;28;20032;-87
2023/08/25 08:59:34;;;;;;;3.88;1.80;;;;;;;;;;5093469;28;20419;-86
2023/08/25 09:02:00;;;;;;;6.43;1.70;;;;;;;;;;5100483;28;20084;-84
2023/08/25 09:04:28;;;;;;;2.95;1.42;;;;;;;;;;5097753;28;20127;-83
2023/08/25 09:06:55;;;;;;;5.32;1.80;;;;;;;;;;5095849;28;20106;-84
2023/08/25 09:09:21;;;;;;;4.10;1.83;;;;;;;;;;5090870;28;20060;-84
2023/08/25 09:11:48;;;;;;;4.10;1.80;;;;;;;;;;5091972;28;20131;-83
2023/08/25 09:14:26;;;;;;;4.55;1.85;;;;;;;;;;5093760;28;20122;-84
2023/08/25 09:17:02;;;;;;;3.78;1.70;;;;;;;;;;5088282;28;20044;-83
2023/08/25 09:19:31;;;;;;;4.82;1.80;;;;;;;;;;5085750;28;20474;-83
2023/08/25 09:21:57;;;;;;;5.50;1.90;;;;;;;;;;5090525;28;20040;-83
2023/08/25 09:24:23;;;;;;;4.03;1.58;;;;;;;;;;5097792;28;20031;-83
2023/08/25 09:26:49;;;;;;;6.32;1.85;;;;;;;;;;5100111;28;20089;-82
2023/08/25 09:29:15;;;;;;;4.72;1.80;;;;;;;;;;5104511;28;20450;-83
2023/08/25 09:31:43;;;;;;;5.30;1.80;;;;;;;;;;5103952;28;20080;-83
2023/08/25 09:34:11;;;;;;;5.60;2.00;;;;;;;;;;5096467;28;20027;-83
2023/08/25 09:36:53;;;;;;;6.53;1.75;;;;;;;;;;5095598;28;20027;-83
2023/08/25 09:39:19;;;;;;;6.85;1.90;;;;;;;;;;5095180;28;20060;-83
2023/08/25 09:41:46;;;;;;;7.60;1.90;;;;;;;;;;5099696;28;20032;-83
2023/08/25 09:44:12;;;;;;;4.55;1.80;;;;;;;;;;5113064;22;20067;-85
2023/08/25 09:46:38;;;;;;;5.25;1.70;;;;;;;;;;5080792;28;20035;-86
2023/08/25 09:49:08;;;;;;;5.75;2.00;;;;;;;;;;5083593;28;20075;-86
2023/08/25 09:51:39;;;;;;;3.17;1.65;;;;;;;;;;5089465;28;20390;-87
2023/08/25 09:54:16;;;;;;;4.20;1.80;;;;;;;;;;5077838;28;20051;-84
2023/08/25 09:56:43;;;;;;;6.82;1.85;;;;;;;;;;5077666;28;20033;-85
2023/08/25 09:59:10;;;;;;;4.88;1.80;;;;;;;;;;5077762;28;20027;-86
2023/08/25 10:01:43;;;;;;;6.53;1.83;;;;;;;;;;5092275;28;20481;-86
2023/08/25 10:04:09;;;;;;;4.97;1.77;;;;;;;;;;5081300;28;20658;-85
2023/08/25 10:06:39;;;;;;;4.03;1.88;;;;;;;;;;5076653;28;20055;-84
2023/08/25 10:09:08;;;;;;;5.13;2.00;;;;;;;;;;5073480;28;20086;-85
2023/08/25 10:11:41;;;;;;;6.82;2.10;;;;;;;;;;5083206;28;20107;-83
2023/08/25 10:14:12;;;;;;;4.10;1.90;;;;;;;;;;5083717;28;20055;-85
2023/08/25 10:16:51;;;;;;;4.30;1.80;;;;;;;;;;5080472;28;20028;-85
2023/08/25 10:19:23;;;;;;;5.72;1.90;;;;;;;;;;5073574;28;20052;-85
2023/08/25 10:21:51;;;;;;;3.90;1.90;;;;;;;;;;5087237;28;20033;-85
2023/08/25 10:24:21;;;;;;;3.80;1.95;;;;;;;;;;5099176;28;20052;-85
2023/08/25 10:26:48;;;;;;;8.13;1.90;;;;;;;;;;5080871;28;20043;-84
2023/08/25 10:29:17;;;;;;;5.15;2.00;;;;;;;;;;5092674;27;20035;-82
2023/08/25 10:32:02;;;;;;;4.00;2.00;;;;;;;;;;5097597;28;20095;-83
2023/08/25 10:34:45;;;;;;;6.78;2.13;;;;;;;;;;5087764;28;20063;-80
2023/08/25 10:37:13;;;;;;;5.18;2.35;;;;;;;;;;5097848;28;20036;-80
2023/08/25 10:40:06;;;;;;;7.68;2.60;;;;;;;;;;5079611;28;20095;-81
2023/08/25 10:42:33;;;;;;;12.07;2.78;;;;;;;;;;5081019;28;20036;-81
2023/08/25 10:45:09;;;;;;;8.38;2.47;;;;;;;;;;5077889;28;20036;-82
2023/08/25 10:47:47;;;;;;;9.88;2.90;;;;;;;;;;5098434;28;20032;-83
2023/08/25 10:50:13;;;;;;;6.28;2.40;;;;;;;;;;5091079;28;20459;-80
2023/08/25 10:52:46;;;;;;;5.63;2.30;;;;;;;;;;5083676;28;20545;-81
2023/08/25 10:55:32;;;;;;;5.75;2.40;;;;;;;;;;5094442;28;20036;-81
2023/08/25 10:58:07;;;;;;;6.00;2.30;;;;;;;;;;5097350;28;20027;-80
2023/08/25 11:00:34;;;;;;;6.65;2.38;;;;;;;;;;5080061;28;20067;-81
2023/08/25 11:03:01;;;;;;;5.95;2.33;;;;;;;;;;5078506;28;20024;-81
2023/08/25 11:05:31;;;;;;;5.80;2.28;;;;;;;;;;5074330;28;20028;-81
2023/08/25 11:07:58;;;;;;;6.13;2.38;;;;;;;;;;5073007;28;20028;-81
2023/08/25 11:10:27;;;;;;;5.15;2.45;;;;;;;;;;5079789;28;20111;-82
2023/08/25 11:12:54;;;;;;;4.10;2.50;;;;;;;;;;5084289;28;20028;-83
2023/08/25 11:15:22;;;;;;;6.75;3.00;;;;;;;;;;5080973;28;20107;-82
2023/08/25 11:17:48;;;;;;;6.32;2.45;;;;;;;;;;5077002;28;20044;-82
2023/08/25 11:20:16;;;;;;;5.60;2.47;;;;;;;;;;5100789;28;20040;-84
2023/08/25 11:22:59;;;;;;;3.97;2.30;;;;;;;;;;5090012;28;20131;-84
2023/08/25 11:25:25;;;;;;;3.97;2.45;;;;;;;;;;5086990;28;20479;-81
2023/08/25 11:27:55;;;;;;;5.75;2.70;;;;;;;;;;5082085;28;20035;-83
2023/08/25 11:30:21;;;;;;;6.22;2.42;;;;;;;;;;5079584;28;20147;-81
2023/08/25 11:32:50;;;;;;;8.05;2.40;;;;;;;;;;5080310;28;20032;-82
2023/08/25 11:35:16;;;;;;;5.20;2.33;;;;;;;;;;5084285;28;20516;-80
2023/08/25 11:37:42;;;;;;;4.03;2.40;;;;;;;;;;5080422;27;20105;-82
2023/08/25 11:40:14;;;;;;;3.15;2.20;;;;;;;;;;5088637;28;20028;-81
2023/08/25 11:42:40;;;;;;;4.22;2.30;;;;;;;;;;5075818;28;20035;-82
2023/08/25 11:45:09;;;;;;;6.40;2.33;;;;;;;;;;5086291;28;20482;-82
2023/08/25 11:47:35;;;;;;;4.53;2.50;;;;;;;;;;5094932;28;20510;-83
2023/08/25 11:50:02;;;;;;;5.40;2.55;;;;;;;;;;5087456;28;20482;-84
2023/08/25 11:52:28;;;;;;;5.93;2.60;;;;;;;;;;5097725;28;20437;-86
2023/08/25 11:54:54;;;;;;;4.10;2.53;;;;;;;;;;5083700;28;20036;-84
2023/08/25 11:57:19;;;;;;;4.53;2.50;;;;;;;;;;5082975;28;20048;-83
2023/08/25 11:59:52;;;;;;;7.90;2.78;;;;;;;;;;5085092;28;20056;-84
2023/08/25 12:02:19;;;;;;;6.75;2.95;;;;;;;;;;5086206;28;20032;-84
2023/08/25 12:04:56;;;;;;;8.70;2.72;;;;;;;;;;5081137;28;20029;-84
2023/08/25 12:07:26;;;;;;;6.10;2.40;;;;;;;;;;5080769;28;20462;-83
2023/08/25 12:10:05;;;;;;;6.18;2.60;;;;;;;;;;5088957;28;20052;-84
2023/08/25 12:12:32;;;;;;;7.80;3.00;;;;;;;;;;5096058;28;20032;-86
2023/08/25 12:14:57;;;;;;;5.25;2.90;;;;;;;;;;5082989;28;20056;-85
2023/08/25 12:17:25;;;;;;;5.13;2.50;;;;;;;;;;5093370;28;20048;-84
2023/08/25 12:19:50;;;;;;;4.25;2.60;;;;;;;;;;5097176;28;20031;-83
2023/08/25 12:22:16;;;;;;;4.80;2.80;;;;;;;;;;5092932;28;20032;-83
2023/08/25 12:24:42;;;;;;;5.05;2.45;;;;;;;;;;5085448;28;20047;-85
2023/08/25 12:27:08;;;;;;;6.60;2.90;;;;;;;;;;5085650;28;20040;-85
2023/08/25 12:29:34;;;;;;;5.53;2.50;;;;;;;;;;5115803;28;20036;-84
2023/08/25 12:32:00;;;;;;;9.45;2.80;;;;;;;;;;5095889;28;20036;-82
2023/08/25 12:34:25;;;;;;;6.28;2.60;;;;;;;;;;5098172;28;20020;-85
2023/08/25 12:36:51;;;;;;;5.88;2.80;;;;;;;;;;5091705;28;20032;-84
2023/08/25 12:39:18;;;;;;;4.90;2.90;;;;;;;;;;5106452;28;20047;-86
2023/08/25 12:41:43;;;;;;;4.47;2.70;;;;;;;;;;5088977;28;20028;-84
2023/08/25 12:44:09;;;;;;;5.90;3.00;;;;;;;;;;5093056;28;20520;-84
2023/08/25 12:46:34;;;;;;;6.75;2.95;;;;;;;;;;5095410;28;20058;-85
2023/08/25 12:49:00;;;;;;;4.20;2.90;;;;;;;;;;5096782;28;20027;-84
2023/08/25 12:51:25;;;;;;;4.65;2.83;;;;;;;;;;5090865;28;20106;-84
2023/08/25 12:53:51;;;;;;;3.83;2.72;;;;;;;;;;5091140;28;20028;-82
2023/08/25 12:56:16;;;;;;;4.38;2.80;;;;;;;;;;5083317;28;20513;-82
2023/08/25 12:58:42;;;;;;;6.43;2.72;;;;;;;;;;5100011;28;20053;-83
2023/08/25 13:01:08;;;;;;;5.03;2.70;;;;;;;;;;5092000;28;20066;-83
2023/08/25 13:03:34;;;;;;;6.03;3.00;;;;;;;;;;5084138;28;20470;-84
2023/08/25 13:06:02;;;;;;;5.72;3.00;;;;;;;;;;5087489;28;20047;-83
2023/08/25 13:08:28;;;;;;;6.60;2.90;;;;;;;;;;5092412;28;20031;-85
2023/08/25 13:10:54;;;;;;;6.68;3.00;;;;;;;;;;5089408;28;20051;-81
2023/08/25 13:13:20;;;;;;;6.00;2.90;;;;;;;;;;5085889;28;20032;-82
2023/08/25 13:15:45;;;;;;;3.95;2.70;;;;;;;;;;5080239;28;20024;-84
2023/08/25 13:18:11;;;;;;;4.55;3.17;;;;;;;;;;5085143;28;20062;-85
2023/08/25 13:20:36;;;;;;;4.60;3.05;;;;;;;;;;5106629;28;20074;-80
2023/08/25 13:23:02;;;;;;;6.40;2.97;;;;;;;;;;5085460;28;20032;-84
2023/08/25 13:25:28;;;;;;;5.18;2.90;;;;;;;;;;5080112;28;20028;-84
2023/08/25 13:27:53;;;;;;;8.70;2.90;;;;;;;;;;5082920;28;20024;-84
2023/08/25 13:30:18;;;;;;;6.53;2.75;;;;;;;;;;5091213;28;20490;-83
2023/08/25 13:32:44;;;;;;;8.63;2.88;;;;;;;;;;5092857;28;20020;-82
2023/08/25 13:35:09;;;;;;;6.45;2.90;;;;;;;;;;5082836;28;20028;-83
2023/08/25 13:37:35;;;;;;;6.47;2.70;;;;;;;;;;5095882;28;20054;-83
2023/08/25 13:40:01;;;;;;;7.35;3.08;;;;;;;;;;5079526;28;20453;-82
2023/08/25 13:42:27;;;;;;;4.68;3.30;;;;;;;;;;5080635;28;20028;-82
2023/08/25 13:44:55;;;;;;;4.68;2.70;;;;;;;;;;5084477;28;20109;-83
2023/08/25 13:47:21;;;;;;;5.72;3.10;;;;;;;;;;5089254;28;20088;-84
2023/08/25 13:49:49;;;;;;;6.57;2.90;;;;;;;;;;5077464;28;20085;-83
2023/08/25 13:52:15;;;;;;;5.32;2.80;;;;;;;;;;5087032;28;20028;-84
2023/08/25 13:54:41;;;;;;;5.72;3.00;;;;;;;;;;5095248;28;20032;-83
2023/08/25 13:57:06;;;;;;;4.10;3.15;;;;;;;;;;5075214;28;20564;-83
2023/08/25 13:59:32;;;;;;;7.25;3.20;;;;;;;;;;5079498;28;20032;-83
2023/08/25 14:01:57;;;;;;;6.40;3.03;;;;;;;;;;5079536;28;20503;-81
2023/08/25 14:04:23;;;;;;;12.40;3.10;;;;;;;;;;5093585;28;20044;-84
2023/08/25 14:06:49;;;;;;;6.40;2.95;;;;;;;;;;5080112;28;20035;-83
2023/08/25 14:09:14;;;;;;;5.40;3.20;;;;;;;;;;5081206;28;20064;-85
2023/08/25 14:11:40;;;;;;;4.68;3.08;;;;;;;;;;5077087;28;20032;-86
2023/08/25 14:14:05;;;;;;;9.70;3.10;;;;;;;;;;5073607;28;20043;-84
2023/08/25 14:16:33;;;;;;;8.13;3.30;;;;;;;;;;5097597;28;20395;-85
2023/08/25 14:18:58;;;;;;;6.72;2.90;;;;;;;;;;5086989;28;20132;-85
2023/08/25 14:21:24;;;;;;;5.60;3.10;;;;;;;;;;5081294;28;20059;-85
2023/08/25 14:23:50;;;;;;;5.85;3.10;;;;;;;;;;5080932;28;20052;-83
2023/08/25 14:26:16;;;;;;;7.10;3.20;;;;;;;;;;5078218;28;20502;-83
2023/08/25 14:28:41;;;;;;;6.53;3.05;;;;;;;;;;5083180;28;20043;-85
2023/08/25 14:31:07;;;;;;;5.72;3.30;;;;;;;;;;5086871;28;20036;-85
2023/08/25 14:33:32;;;;;;;6.60;3.38;;;;;;;;;;5085143;28;20058;-86
2023/08/25 14:35:58;;;;;;;7.85;3.13;;;;;;;;;;5094222;28;20043;-83
2023/08/25 14:38:23;;;;;;;4.70;3.13;;;;;;;;;;5080854;28;20033;-84
2023/08/25 14:40:50;;;;;;;7.40;2.92;;;;;;;;;;5090398;28;20056;-84